createdAt,value
2017-09-24T00:00:45.664Z,51.37
2017-09-24T00:03:13.150Z,47.70
2017-09-24T00:05:40.610Z,54.30
2017-09-24T00:08:08.070Z,50.30
2017-09-24T00:10:35.550Z,48.40
2017-09-24T00:13:03.006Z,50.00
2017-09-24T00:15:30.470Z,50.70
2017-09-24T00:17:57.954Z,63.30
2017-09-24T00:20:25.414Z,50.17
2017-09-24T00:22:52.874Z,76.90
2017-09-24T00:25:20.351Z,63.73
2017-09-24T00:27:47.811Z,53.60
2017-09-24T00:30:15.299Z,58.97
2017-09-24T00:32:42.754Z,55.23
2017-09-24T00:35:10.222Z,54.90
2017-09-24T00:37:37.722Z,60.73
2017-09-24T00:40:05.183Z,67.40
2017-09-24T00:42:32.642Z,80.77
2017-09-24T00:45:00.123Z,82.53
2017-09-24T00:47:27.593Z,80.23
2017-09-24T00:49:55.046Z,70.93
2017-09-24T00:52:22.530Z,67.90
2017-09-24T00:54:49.990Z,67.63
2017-09-24T00:57:18.339Z,69.70
2017-09-24T00:59:45.826Z,72.43
2017-09-24T01:02:13.528Z,68.77
2017-09-24T01:04:41.255Z,76.13
2017-09-24T01:07:08.795Z,77.73
2017-09-24T01:09:36.610Z,86.63
2017-09-24T01:12:04.078Z,160.03
2017-09-24T01:14:31.802Z,310.13
2017-09-24T01:16:59.318Z,410.00
2017-09-24T01:19:26.804Z,337.10
2017-09-24T01:21:54.265Z,225.47
2017-09-24T01:24:21.722Z,150.60
2017-09-24T01:26:49.202Z,134.03
2017-09-24T01:29:16.663Z,111.43
2017-09-24T01:31:44.127Z,107.23
2017-09-24T01:34:11.602Z,92.97
2017-09-24T01:36:39.086Z,108.07
2017-09-24T01:39:07.423Z,90.10
2017-09-24T01:41:34.898Z,85.00
2017-09-24T01:44:02.354Z,82.67
2017-09-24T01:46:29.830Z,87.70
2017-09-24T01:48:57.318Z,70.57
2017-09-24T01:51:24.778Z,75.43
2017-09-24T01:53:52.282Z,72.43
2017-09-24T01:56:19.738Z,65.73
2017-09-24T01:58:47.190Z,61.07
2017-09-24T02:01:14.670Z,61.87
2017-09-24T02:03:42.138Z,55.97
2017-09-24T02:06:09.599Z,56.70
2017-09-24T02:08:37.090Z,58.53
2017-09-24T02:11:04.546Z,78.43
2017-09-24T02:13:32.002Z,60.47
2017-09-24T02:15:59.498Z,73.73
2017-09-24T02:18:26.951Z,89.77
2017-09-24T02:20:54.406Z,74.07
2017-09-24T02:23:21.892Z,76.47
2017-09-24T02:25:49.358Z,69.77
2017-09-24T02:28:16.818Z,78.53
2017-09-24T02:30:44.302Z,65.67
2017-09-24T02:33:11.759Z,64.13
2017-09-24T02:35:39.214Z,74.93
2017-09-24T02:38:06.698Z,81.17
2017-09-24T02:40:34.198Z,67.83
2017-09-24T02:43:01.654Z,65.60
2017-09-24T02:45:29.137Z,68.83
2017-09-24T02:47:56.607Z,67.03
2017-09-24T02:50:24.059Z,68.23
2017-09-24T02:52:51.571Z,68.20
2017-09-24T02:55:19.022Z,59.30
2017-09-24T02:57:46.482Z,64.40
2017-09-24T03:00:13.974Z,61.60
2017-09-24T03:02:41.430Z,70.93
2017-09-24T03:05:08.883Z,69.67
2017-09-24T03:07:36.374Z,74.13
2017-09-24T03:10:03.826Z,87.50
2017-09-24T03:12:31.277Z,74.83
2017-09-24T03:14:58.758Z,74.77
2017-09-24T03:17:26.214Z,80.60
2017-09-24T03:19:53.673Z,74.37
2017-09-24T03:22:21.158Z,75.80
2017-09-24T03:24:48.621Z,74.43
2017-09-24T03:27:16.138Z,66.20
2017-09-24T03:29:43.617Z,75.63
2017-09-24T03:32:11.074Z,73.57
2017-09-24T03:34:38.530Z,79.67
2017-09-24T03:37:06.010Z,79.60
2017-09-24T03:39:33.468Z,82.53
2017-09-24T03:42:00.935Z,77.17
2017-09-24T03:44:28.422Z,77.47
2017-09-24T03:46:55.880Z,71.33
2017-09-24T03:49:23.334Z,73.10
2017-09-24T03:51:50.819Z,83.63
2017-09-24T03:54:18.279Z,71.57
2017-09-24T03:56:45.738Z,76.13
2017-09-24T03:59:13.219Z,74.03
2017-09-24T04:01:40.678Z,74.97
2017-09-24T04:04:08.137Z,68.07
2017-09-24T04:06:35.626Z,79.63
2017-09-24T04:09:03.086Z,72.70
2017-09-24T04:11:30.542Z,71.73
2017-09-24T04:13:58.022Z,80.63
2017-09-24T04:16:25.474Z,84.90
2017-09-24T04:18:52.929Z,96.57
2017-09-24T04:21:20.454Z,114.90
2017-09-24T04:23:48.510Z,119.30
2017-09-24T04:26:15.970Z,108.03
2017-09-24T04:28:43.478Z,117.87
2017-09-24T04:31:10.946Z,110.63
2017-09-24T04:33:38.405Z,129.10
2017-09-24T04:36:05.900Z,118.97
2017-09-24T04:38:33.394Z,105.27
2017-09-24T04:41:00.858Z,106.50
2017-09-24T04:43:28.382Z,116.17
2017-09-24T04:45:55.872Z,118.87
2017-09-24T04:48:23.331Z,96.27
2017-09-24T04:50:50.818Z,105.23
2017-09-24T04:53:22.254Z,97.47
2017-09-24T04:55:49.715Z,107.03
2017-09-24T04:58:17.198Z,108.37
2017-09-24T05:00:45.635Z,109.43
2017-09-24T05:03:14.626Z,102.63
2017-09-24T05:05:42.158Z,78.10
2017-09-24T05:08:09.634Z,83.83
2017-09-24T05:10:37.099Z,96.50
2017-09-24T05:13:06.033Z,86.90
2017-09-24T05:15:34.722Z,85.23
2017-09-24T05:18:08.727Z,89.00
2017-09-24T05:20:36.203Z,84.43
2017-09-24T05:23:03.654Z,73.97
2017-09-24T05:25:31.106Z,86.20
2017-09-24T05:27:58.582Z,83.43
2017-09-24T05:30:26.034Z,94.83
2017-09-24T05:32:53.481Z,86.17
2017-09-24T05:35:20.954Z,80.20
2017-09-24T05:37:48.407Z,81.77
2017-09-24T05:40:15.858Z,92.73
2017-09-24T05:42:43.353Z,79.50
2017-09-24T05:45:10.810Z,81.47
2017-09-24T05:47:38.265Z,85.83
2017-09-24T05:50:05.757Z,85.77
2017-09-24T05:52:33.210Z,87.17
2017-09-24T05:55:00.670Z,89.47
2017-09-24T05:57:28.158Z,76.30
2017-09-24T05:59:55.617Z,73.03
2017-09-24T06:02:23.071Z,88.00
2017-09-24T06:04:50.550Z,83.87
2017-09-24T06:07:22.212Z,94.17
2017-09-24T06:09:51.069Z,101.73
2017-09-24T06:12:18.613Z,109.07
2017-09-24T06:14:46.090Z,87.33
2017-09-24T06:17:13.619Z,101.33
2017-09-24T06:19:41.074Z,97.77
2017-09-24T06:22:08.538Z,109.13
2017-09-24T06:24:36.027Z,104.90
2017-09-24T06:27:03.487Z,81.53
2017-09-24T06:29:30.954Z,81.50
2017-09-24T06:31:58.435Z,91.03
2017-09-24T06:34:25.898Z,83.60
2017-09-24T06:36:53.357Z,79.57
2017-09-24T06:39:20.845Z,72.70
2017-09-24T06:41:48.298Z,72.13
2017-09-24T06:44:15.762Z,69.27
2017-09-24T06:46:43.242Z,78.43
2017-09-24T06:49:10.747Z,85.17
2017-09-24T06:51:38.586Z,80.47
2017-09-24T06:54:06.066Z,86.13
2017-09-24T06:56:33.529Z,77.40
2017-09-24T06:59:00.982Z,75.77
2017-09-24T07:01:28.458Z,80.03
2017-09-24T07:03:55.957Z,90.73
2017-09-24T07:06:23.420Z,81.57
2017-09-24T07:08:51.016Z,82.40
2017-09-24T07:11:18.526Z,86.80
2017-09-24T07:13:46.031Z,80.47
2017-09-24T07:16:14.032Z,84.33
2017-09-24T07:18:41.575Z,66.73
2017-09-24T07:21:09.113Z,80.30
2017-09-24T07:23:36.853Z,81.33
2017-09-24T07:26:04.667Z,79.07
2017-09-24T07:28:32.159Z,88.40
2017-09-24T07:30:59.619Z,74.37
2017-09-24T07:33:27.137Z,76.10
2017-09-24T07:35:54.639Z,84.87
2017-09-24T07:38:22.126Z,88.67
2017-09-24T07:40:49.670Z,92.33
2017-09-24T07:43:17.279Z,96.50
2017-09-24T07:45:44.756Z,91.23
2017-09-24T07:48:12.256Z,107.63
2017-09-24T07:50:39.758Z,104.10
2017-09-24T07:53:07.250Z,111.03
2017-09-24T07:55:34.718Z,109.13
2017-09-24T07:58:02.224Z,103.70
2017-09-24T08:00:29.712Z,122.57
2017-09-24T08:02:57.196Z,105.77
2017-09-24T08:05:24.761Z,104.93
2017-09-24T08:07:52.336Z,107.33
2017-09-24T08:10:21.262Z,102.90
2017-09-24T08:12:49.576Z,130.70
2017-09-24T08:15:17.083Z,97.00
2017-09-24T08:17:44.573Z,103.87
2017-09-24T08:20:12.050Z,118.07
2017-09-24T08:22:39.542Z,102.23
2017-09-24T08:25:07.009Z,103.73
2017-09-24T08:27:34.499Z,102.37
2017-09-24T08:30:01.978Z,99.37
2017-09-24T08:32:29.470Z,108.37
2017-09-24T08:34:56.971Z,91.40
2017-09-24T08:37:24.457Z,120.87
2017-09-24T08:39:52.040Z,101.03
2017-09-24T08:42:19.502Z,93.40
2017-09-24T08:44:47.010Z,108.03
2017-09-24T08:47:14.486Z,104.63
2017-09-24T08:49:41.954Z,125.57
2017-09-24T08:52:09.463Z,103.10
2017-09-24T08:54:37.909Z,112.27
2017-09-24T08:57:05.385Z,94.20
2017-09-24T08:59:32.853Z,99.00
2017-09-24T09:02:00.346Z,100.13
2017-09-24T09:04:27.805Z,97.50
2017-09-24T09:06:55.303Z,104.83
2017-09-24T09:09:22.762Z,98.73
2017-09-24T09:11:50.268Z,101.10
2017-09-24T09:14:17.751Z,99.83
2017-09-24T09:16:45.201Z,93.37
2017-09-24T09:19:12.670Z,94.23
2017-09-24T09:21:45.997Z,98.60
2017-09-24T09:24:13.688Z,87.63
2017-09-24T09:26:41.174Z,108.47
2017-09-24T09:29:08.681Z,100.33
2017-09-24T09:31:36.214Z,81.17
2017-09-24T09:34:15.728Z,94.17
2017-09-24T09:36:43.193Z,83.17
2017-09-24T09:39:10.671Z,85.67
2017-09-24T09:41:38.161Z,84.60
2017-09-24T09:44:05.623Z,87.50
2017-09-24T09:46:44.907Z,89.70
2017-09-24T09:49:12.366Z,81.57
2017-09-24T09:51:39.834Z,75.40
2017-09-24T09:54:07.322Z,83.60
2017-09-24T09:56:34.782Z,79.47
2017-09-24T09:59:07.039Z,72.43
2017-09-24T10:01:38.552Z,82.70
2017-09-24T10:04:06.795Z,74.67
2017-09-24T10:06:46.130Z,84.70
2017-09-24T10:09:25.351Z,68.63
2017-09-24T10:11:52.910Z,63.30
2017-09-24T10:14:20.438Z,64.63
2017-09-24T10:16:48.736Z,71.23
2017-09-24T10:19:21.649Z,81.80
2017-09-24T10:21:52.007Z,70.10
2017-09-24T10:24:19.538Z,58.70
2017-09-24T10:26:47.018Z,66.07
2017-09-24T10:32:07.370Z,52.67
2017-09-24T10:34:34.846Z,46.93
2017-09-24T10:37:08.984Z,53.93
2017-09-24T10:39:36.666Z,55.50
2017-09-24T10:42:04.172Z,60.17
2017-09-24T10:44:31.639Z,58.40
2017-09-24T10:46:59.167Z,54.20
2017-09-24T10:49:31.294Z,47.93
2017-09-24T10:51:59.978Z,46.13
2017-09-24T10:54:27.430Z,42.77
2017-09-24T10:56:54.886Z,40.73
2017-09-24T10:59:22.369Z,53.87
2017-09-24T11:01:49.830Z,46.57
2017-09-24T11:04:17.311Z,38.10
2017-09-24T11:06:44.850Z,35.43
2017-09-24T11:09:12.309Z,34.40
2017-09-24T11:11:39.839Z,34.03
2017-09-24T11:14:07.907Z,30.00
2017-09-24T11:16:37.900Z,31.30
2017-09-24T11:19:14.141Z,29.83
2017-09-24T11:21:41.923Z,32.53
2017-09-24T11:24:12.434Z,23.33
2017-09-24T11:26:39.937Z,24.57
2017-09-24T11:29:11.309Z,29.40
2017-09-24T11:31:38.767Z,37.30
2017-09-24T11:34:06.223Z,22.73
2017-09-24T11:36:33.710Z,22.70
2017-09-24T11:39:01.190Z,28.27
2017-09-24T11:41:28.666Z,24.73
2017-09-24T11:43:56.184Z,25.57
2017-09-24T11:46:29.930Z,33.50
2017-09-24T11:49:05.439Z,27.57
2017-09-24T11:51:32.925Z,36.47
2017-09-24T11:54:01.807Z,35.00
2017-09-24T11:56:32.324Z,37.27
2017-09-24T11:59:00.345Z,33.47
2017-09-24T12:01:32.603Z,32.00
2017-09-24T12:04:02.212Z,38.53
2017-09-24T12:06:30.451Z,35.93
2017-09-24T12:08:57.910Z,37.00
2017-09-24T12:11:25.447Z,36.23
2017-09-24T12:13:52.906Z,48.43
2017-09-24T12:16:22.259Z,33.07
2017-09-24T12:18:52.609Z,29.60
2017-09-24T12:21:23.016Z,32.60
2017-09-24T12:23:50.519Z,33.60
2017-09-24T12:26:17.974Z,30.73
2017-09-24T12:28:51.402Z,31.20
2017-09-24T12:31:18.863Z,29.80
2017-09-24T12:33:46.939Z,26.67
2017-09-24T12:36:14.538Z,32.57
2017-09-24T12:38:42.019Z,34.07
2017-09-24T12:41:12.789Z,26.80
2017-09-24T12:43:41.386Z,26.27
2017-09-24T12:46:08.861Z,27.13
2017-09-24T12:48:36.327Z,33.73
2017-09-24T12:51:07.001Z,42.93
2017-09-24T12:53:34.474Z,34.60
2017-09-24T12:56:02.043Z,29.67
2017-09-24T12:58:29.530Z,38.63
2017-09-24T13:00:56.987Z,46.10
2017-09-24T13:03:24.499Z,38.37
2017-09-24T13:05:52.000Z,38.07
2017-09-24T13:08:19.462Z,42.10
2017-09-24T13:10:47.047Z,42.97
2017-09-24T13:13:14.510Z,39.87
2017-09-24T13:15:41.977Z,41.43
2017-09-24T13:18:09.459Z,47.77
2017-09-24T13:20:36.917Z,43.70
2017-09-24T13:23:04.426Z,45.07
2017-09-24T13:25:32.065Z,43.17
2017-09-24T13:27:59.535Z,42.97
2017-09-24T13:30:27.002Z,38.60
2017-09-24T13:32:54.565Z,41.90
2017-09-24T13:35:22.426Z,44.17
2017-09-24T13:37:49.880Z,37.10
2017-09-24T13:40:17.694Z,41.50
2017-09-24T13:42:49.770Z,37.50
2017-09-24T13:45:17.250Z,37.17
2017-09-24T13:47:46.262Z,34.87
2017-09-24T13:53:00.243Z,41.53
2017-09-24T13:55:27.722Z,33.17
2017-09-24T13:57:55.189Z,33.10
2017-09-24T14:00:22.674Z,32.53
2017-09-24T14:02:50.137Z,37.70
2017-09-24T14:05:17.590Z,29.60
2017-09-24T14:07:45.062Z,35.37
2017-09-24T14:10:12.522Z,30.40
2017-09-24T14:12:39.974Z,35.03
2017-09-24T14:15:07.459Z,34.40
2017-09-24T14:17:40.325Z,31.33
2017-09-24T14:20:08.358Z,30.80
2017-09-24T14:22:35.823Z,34.57
2017-09-24T14:25:03.283Z,32.33
2017-09-24T14:27:30.783Z,34.20
2017-09-24T14:30:00.409Z,34.10
2017-09-24T14:32:27.890Z,34.50
2017-09-24T14:35:00.056Z,41.53
2017-09-24T14:37:30.562Z,29.60
2017-09-24T14:40:00.941Z,34.73
2017-09-24T14:42:28.955Z,29.80
2017-09-24T14:47:34.712Z,33.27
2017-09-24T14:50:02.189Z,38.43
2017-09-24T14:52:29.642Z,36.53
2017-09-24T14:54:57.131Z,32.90
2017-09-24T14:57:24.598Z,33.50
2017-09-24T14:59:55.875Z,33.87
2017-09-24T15:02:23.382Z,33.13
2017-09-24T15:04:50.846Z,29.50
2017-09-24T15:07:18.316Z,32.80
2017-09-24T15:09:45.794Z,38.53
2017-09-24T15:12:13.253Z,31.30
2017-09-24T15:14:40.731Z,30.63
2017-09-24T15:17:12.893Z,35.33
2017-09-24T15:19:41.066Z,28.17
2017-09-24T15:22:09.419Z,32.73
2017-09-24T15:24:37.854Z,33.13
2017-09-24T15:27:09.598Z,32.20
2017-09-24T15:29:38.191Z,29.53
2017-09-24T15:32:05.650Z,35.60
2017-09-24T15:34:33.114Z,31.50
2017-09-24T15:37:00.609Z,35.53
2017-09-24T15:39:28.099Z,32.10
2017-09-24T15:41:55.575Z,35.17
2017-09-24T15:44:23.054Z,35.20
2017-09-24T15:46:50.510Z,35.50
2017-09-24T15:49:17.966Z,40.47
2017-09-24T15:51:45.447Z,41.20
2017-09-24T15:54:12.902Z,38.27
2017-09-24T15:56:40.358Z,36.30
2017-09-24T15:59:07.846Z,30.43
2017-09-24T16:01:35.302Z,35.73
2017-09-24T16:04:02.796Z,31.57
2017-09-24T16:06:30.284Z,34.57
2017-09-24T16:08:57.889Z,37.13
2017-09-24T16:11:25.355Z,35.10
2017-09-24T16:13:53.538Z,32.00
2017-09-24T16:16:21.018Z,30.80
2017-09-24T16:18:48.482Z,33.83
2017-09-24T16:21:15.994Z,36.67
2017-09-24T16:23:43.459Z,33.97
2017-09-24T16:26:10.914Z,38.77
2017-09-24T16:28:38.401Z,35.40
2017-09-24T16:31:05.858Z,41.77
2017-09-24T16:33:35.541Z,38.67
2017-09-24T16:36:03.046Z,48.03
2017-09-24T16:38:31.010Z,36.03
2017-09-24T16:40:58.466Z,40.17
2017-09-24T16:43:25.946Z,41.63
2017-09-24T16:45:53.410Z,40.70
2017-09-24T16:48:20.866Z,41.20
2017-09-24T16:50:48.378Z,40.70
2017-09-24T16:53:15.842Z,36.87
2017-09-24T16:55:43.294Z,37.70
2017-09-24T16:58:10.779Z,47.70
2017-09-24T17:00:38.406Z,41.00
2017-09-24T17:03:05.879Z,46.83
2017-09-24T17:05:33.383Z,46.37
2017-09-24T17:08:00.857Z,46.37
2017-09-24T17:10:28.384Z,56.67
2017-09-24T17:12:55.870Z,49.20
2017-09-24T17:15:23.351Z,47.97
2017-09-24T17:17:50.810Z,49.67
2017-09-24T17:20:18.294Z,48.60
2017-09-24T17:22:45.767Z,52.40
2017-09-24T17:25:13.230Z,50.63
2017-09-24T17:27:40.713Z,46.50
2017-09-24T17:30:08.188Z,52.33
2017-09-24T17:32:35.665Z,44.33
2017-09-24T17:35:03.158Z,42.57
2017-09-24T17:37:30.783Z,53.03
2017-09-24T17:39:58.280Z,48.43
2017-09-24T17:42:25.829Z,44.83
2017-09-24T17:44:53.595Z,48.60
2017-09-24T17:47:21.070Z,49.93
2017-09-24T17:49:48.752Z,51.63
2017-09-24T17:52:16.428Z,48.23
2017-09-24T17:54:43.959Z,48.67
2017-09-24T17:57:11.767Z,47.43
2017-09-24T17:59:39.381Z,52.10
2017-09-24T18:02:07.005Z,43.53
2017-09-24T18:04:34.875Z,42.10
2017-09-24T18:07:02.586Z,43.37
2017-09-24T18:09:30.681Z,43.50
2017-09-24T18:11:59.077Z,46.30
2017-09-24T18:14:27.379Z,42.10
2017-09-24T18:16:55.673Z,46.53
2017-09-24T18:19:24.263Z,43.70
2017-09-24T18:21:52.712Z,43.17
2017-09-24T18:24:21.192Z,47.23
2017-09-24T18:26:49.642Z,40.07
2017-09-24T18:32:18.508Z,41.93
2017-09-24T18:34:46.990Z,49.97
2017-09-24T18:37:15.409Z,43.43
2017-09-24T18:39:44.176Z,39.03
2017-09-24T18:45:06.390Z,42.93
2017-09-24T18:47:34.924Z,36.60
2017-09-24T18:50:03.459Z,43.90
2017-09-24T18:52:32.371Z,40.43
2017-09-24T18:55:00.791Z,36.47
2017-09-24T18:57:29.176Z,36.30
2017-09-24T18:59:57.786Z,37.57
2017-09-24T19:02:26.206Z,36.90
2017-09-24T19:04:55.112Z,35.97
2017-09-24T19:07:23.849Z,38.70
2017-09-24T19:09:53.410Z,44.03
2017-09-24T19:12:21.947Z,37.63
2017-09-24T19:14:50.493Z,34.13
2017-09-24T19:17:18.955Z,35.70
2017-09-24T19:19:47.402Z,36.90
2017-09-24T19:22:15.968Z,38.97
2017-09-24T19:24:45.087Z,40.30
2017-09-24T19:27:13.758Z,37.70
2017-09-24T19:29:42.365Z,39.67
2017-09-24T19:32:10.857Z,39.83
2017-09-24T19:34:39.292Z,37.67
2017-09-24T19:37:07.873Z,38.77
2017-09-24T19:39:36.261Z,35.63
2017-09-24T19:42:04.624Z,35.53
2017-09-24T19:44:33.113Z,39.33
2017-09-24T19:47:01.672Z,33.90
2017-09-24T19:49:30.222Z,34.13
2017-09-24T19:51:58.902Z,36.73
2017-09-24T19:54:27.543Z,34.03
2017-09-24T19:56:56.375Z,42.90
2017-09-24T19:59:24.847Z,33.67
2017-09-24T20:01:53.217Z,36.43
2017-09-24T20:04:21.674Z,32.40
2017-09-24T20:06:50.072Z,31.23
2017-09-24T20:09:18.409Z,32.33
2017-09-24T20:11:46.864Z,32.20
2017-09-24T20:14:15.100Z,32.70
2017-09-24T20:16:43.123Z,34.67
2017-09-24T20:19:11.072Z,34.53
2017-09-24T20:21:38.586Z,34.83
2017-09-24T20:24:06.055Z,39.13
2017-09-24T20:26:33.538Z,35.03
2017-09-24T20:29:01.002Z,38.70
2017-09-24T20:31:28.458Z,34.50
2017-09-24T20:33:55.947Z,32.83
2017-09-24T20:36:23.406Z,36.53
2017-09-24T20:38:50.863Z,34.90
2017-09-24T20:41:18.366Z,45.73
2017-09-24T20:43:45.823Z,33.90
2017-09-24T20:46:13.282Z,33.70
2017-09-24T20:48:40.762Z,39.40
2017-09-24T20:51:08.222Z,41.10
2017-09-24T20:53:35.743Z,40.60
2017-09-24T20:56:03.230Z,34.97
2017-09-24T20:58:30.699Z,41.20
2017-09-24T21:00:58.317Z,35.10
2017-09-24T21:03:25.795Z,41.73
2017-09-24T21:05:53.246Z,41.27
2017-09-24T21:08:20.698Z,39.00
2017-09-24T21:10:48.174Z,37.27
2017-09-24T21:13:15.631Z,40.60
2017-09-24T21:15:43.103Z,36.97
2017-09-24T21:18:10.590Z,42.67
2017-09-24T21:20:38.050Z,38.50
2017-09-24T21:23:05.589Z,40.90
2017-09-24T21:25:33.234Z,42.93
2017-09-24T21:28:00.778Z,41.23
2017-09-24T21:30:28.290Z,47.13
2017-09-24T21:32:55.766Z,48.03
2017-09-24T21:35:23.306Z,46.17
2017-09-24T21:37:50.813Z,49.90
2017-09-24T21:40:18.274Z,43.17
2017-09-24T21:42:45.731Z,44.10
2017-09-24T21:45:13.282Z,42.03
2017-09-24T21:47:40.758Z,43.93
2017-09-24T21:50:08.214Z,52.43
2017-09-24T21:52:35.694Z,46.30
2017-09-24T21:55:03.155Z,46.97
2017-09-24T21:57:30.614Z,53.80
2017-09-24T21:59:58.093Z,47.40
2017-09-24T22:02:25.546Z,51.80
2017-09-24T22:04:53.016Z,47.10
2017-09-24T22:07:20.495Z,56.40
2017-09-24T22:09:47.950Z,44.33
2017-09-24T22:12:15.406Z,55.13
2017-09-24T22:14:42.890Z,60.90
2017-09-24T22:17:10.346Z,56.13
2017-09-24T22:19:37.807Z,56.17
2017-09-24T22:22:05.287Z,48.23
2017-09-24T22:24:32.747Z,56.80
2017-09-24T22:27:00.214Z,42.70
2017-09-24T22:29:27.705Z,52.10
2017-09-24T22:31:55.164Z,50.23
2017-09-24T22:34:22.619Z,56.20
2017-09-24T22:36:50.115Z,53.23
2017-09-24T22:39:17.634Z,55.07
2017-09-24T22:41:45.121Z,47.67
2017-09-24T22:44:12.603Z,52.70
2017-09-24T22:46:40.055Z,49.70
2017-09-24T22:49:07.522Z,48.20
2017-09-24T22:51:34.998Z,53.37
2017-09-24T22:54:02.459Z,55.70
2017-09-24T22:56:29.926Z,58.50
2017-09-24T22:58:57.410Z,48.73
2017-09-24T23:01:24.862Z,49.27
2017-09-24T23:03:52.323Z,58.47
2017-09-24T23:06:19.802Z,44.67
2017-09-24T23:08:47.266Z,53.03
2017-09-24T23:11:14.718Z,55.10
2017-09-24T23:13:42.198Z,51.00
2017-09-24T23:16:09.652Z,51.23
2017-09-24T23:18:37.106Z,49.00
2017-09-24T23:21:04.586Z,55.27
2017-09-24T23:23:32.041Z,56.07
2017-09-24T23:25:59.502Z,49.90
2017-09-24T23:28:26.982Z,54.93
2017-09-24T23:30:54.443Z,54.93
2017-09-24T23:33:21.902Z,54.57
2017-09-24T23:35:49.378Z,51.37
2017-09-24T23:38:16.835Z,54.20
2017-09-24T23:40:44.294Z,49.63
2017-09-24T23:43:11.770Z,52.03
2017-09-24T23:45:39.226Z,53.63
2017-09-24T23:48:06.690Z,58.10
2017-09-24T23:50:34.199Z,54.23
2017-09-24T23:53:01.666Z,53.00
2017-09-24T23:55:29.132Z,50.07
2017-09-24T23:57:56.613Z,56.30
